KPCZ

Waupaca Municipal Airport

Waupaca, Wisconsin, USA
METAR KPCZ 231055Z AUTO 33012G18KT 10SM OVC042 M02/M05 A2965 RMK AO2 T10221055
Observed Flight Rules
Jan-23 @ 10:55 UTC (49 minutes ago) Visual Flight Rules
Wind Visibility Clouds
330° at 12 knots
 Gusting to 18 knots
10 miles
  • Overcast at 4,200' AGL
Temperatures Readings
Current -2°C / 28°F
Dewpoint -6°C / 21°F
Humidity 74%
Altimeter 29.65" Hg
Pressure 1004 hPa
Elevation 252
METAR KPCZ 231055Z AUTO 33012G18KT 10SM OVC042 M02/M05 A2965 RMK AO2 T10221055
Observed Flight Rules
Jan-23 @ 10:55 UTC
(49 minutes ago)
VFR
Wind Visibility
330° at 12 knots
 Gusting to 18 knots
10 miles
Clouds
  • Overcast at 4,200' AGL
Temperature Dewpoint
-2°C / 28°F -6°C / 21°F
Humidity Altimeter Pressure
74% 29.65" Hg 1004 hPa